sensor_id;sensor_type;location;lat;lon;timestamp;P1;durP1;ratioP1;P2;durP2;ratioP2
52614;SDS011;38508;53.158;6.614;2022-09-09T00:01:03;18.05;;;8.50;;
52614;SDS011;38508;53.158;6.614;2022-09-09T00:07:01;15.55;;;7.80;;
52614;SDS011;38508;53.158;6.614;2022-09-09T00:09:29;14.05;;;8.50;;
52614;SDS011;38508;53.158;6.614;2022-09-09T00:12:17;21.33;;;11.40;;
52614;SDS011;38508;53.158;6.614;2022-09-09T00:15:14;12.68;;;8.38;;
52614;SDS011;38508;53.158;6.614;2022-09-09T00:17:52;12.25;;;8.38;;
52614;SDS011;38508;53.158;6.614;2022-09-09T00:22:59;11.63;;;7.60;;
52614;SDS011;38508;53.158;6.614;2022-09-09T00:25:37;12.63;;;8.48;;
52614;SDS011;38508;53.158;6.614;2022-09-09T00:28:16;10.88;;;8.23;;
52614;SDS011;38508;53.158;6.614;2022-09-09T00:30:44;11.57;;;8.25;;
52614;SDS011;38508;53.158;6.614;2022-09-09T00:33:13;16.13;;;8.70;;
52614;SDS011;38508;53.158;6.614;2022-09-09T00:35:50;15.52;;;10.30;;
52614;SDS011;38508;53.158;6.614;2022-09-09T00:38:19;11.15;;;8.45;;
52614;SDS011;38508;53.158;6.614;2022-09-09T00:41:28;12.70;;;8.98;;
52614;SDS011;38508;53.158;6.614;2022-09-09T00:50:00;13.55;;;8.02;;
52614;SDS011;38508;53.158;6.614;2022-09-09T00:55:54;13.85;;;8.07;;
52614;SDS011;38508;53.158;6.614;2022-09-09T00:58:33;10.98;;;8.55;;
52614;SDS011;38508;53.158;6.614;2022-09-09T01:09:08;14.23;;;8.35;;
52614;SDS011;38508;53.158;6.614;2022-09-09T01:12:15;12.52;;;9.27;;
52614;SDS011;38508;53.158;6.614;2022-09-09T01:14:47;12.90;;;8.18;;
52614;SDS011;38508;53.158;6.614;2022-09-09T01:17:21;11.10;;;7.80;;
52614;SDS011;38508;53.158;6.614;2022-09-09T01:20:15;13.70;;;8.32;;
52614;SDS011;38508;53.158;6.614;2022-09-09T01:22:59;12.25;;;7.53;;
52614;SDS011;38508;53.158;6.614;2022-09-09T01:28:48;15.80;;;9.70;;
52614;SDS011;38508;53.158;6.614;2022-09-09T01:31:19;12.43;;;8.32;;
52614;SDS011;38508;53.158;6.614;2022-09-09T01:33:48;12.98;;;8.68;;
52614;SDS011;38508;53.158;6.614;2022-09-09T01:36:17;15.25;;;8.18;;
52614;SDS011;38508;53.158;6.614;2022-09-09T01:39:02;14.43;;;9.13;;
52614;SDS011;38508;53.158;6.614;2022-09-09T01:41:28;11.25;;;7.20;;
52614;SDS011;38508;53.158;6.614;2022-09-09T01:43:54;15.73;;;8.48;;
52614;SDS011;38508;53.158;6.614;2022-09-09T01:46:21;14.88;;;8.27;;
52614;SDS011;38508;53.158;6.614;2022-09-09T01:48:48;11.43;;;8.23;;
52614;SDS011;38508;53.158;6.614;2022-09-09T01:51:15;12.30;;;8.18;;
52614;SDS011;38508;53.158;6.614;2022-09-09T01:53:41;12.43;;;7.78;;
52614;SDS011;38508;53.158;6.614;2022-09-09T01:58:57;12.48;;;8.15;;
52614;SDS011;38508;53.158;6.614;2022-09-09T02:04:30;13.15;;;8.18;;
52614;SDS011;38508;53.158;6.614;2022-09-09T02:07:00;20.55;;;9.70;;
52614;SDS011;38508;53.158;6.614;2022-09-09T02:09:25;12.52;;;8.40;;
52614;SDS011;38508;53.158;6.614;2022-09-09T02:11:59;15.93;;;9.27;;
52614;SDS011;38508;53.158;6.614;2022-09-09T02:14:30;17.20;;;10.02;;
52614;SDS011;38508;53.158;6.614;2022-09-09T02:17:10;12.55;;;8.57;;
52614;SDS011;38508;53.158;6.614;2022-09-09T02:19:40;15.65;;;10.18;;
52614;SDS011;38508;53.158;6.614;2022-09-09T02:22:11;18.30;;;9.05;;
52614;SDS011;38508;53.158;6.614;2022-09-09T02:24:39;16.38;;;9.02;;
52614;SDS011;38508;53.158;6.614;2022-09-09T02:27:06;13.27;;;9.02;;
52614;SDS011;38508;53.158;6.614;2022-09-09T02:29:35;12.30;;;7.90;;
52614;SDS011;38508;53.158;6.614;2022-09-09T02:32:06;15.70;;;9.10;;
52614;SDS011;38508;53.158;6.614;2022-09-09T02:34:36;11.32;;;8.48;;
52614;SDS011;38508;53.158;6.614;2022-09-09T02:37:08;16.77;;;9.27;;
52614;SDS011;38508;53.158;6.614;2022-09-09T02:39:36;14.05;;;8.48;;
52614;SDS011;38508;53.158;6.614;2022-09-09T02:42:03;15.63;;;9.07;;
52614;SDS011;38508;53.158;6.614;2022-09-09T02:44:29;15.52;;;10.00;;
52614;SDS011;38508;53.158;6.614;2022-09-09T02:52:47;15.98;;;8.77;;
52614;SDS011;38508;53.158;6.614;2022-09-09T02:58:15;17.30;;;10.65;;
52614;SDS011;38508;53.158;6.614;2022-09-09T03:00:45;15.80;;;10.10;;
52614;SDS011;38508;53.158;6.614;2022-09-09T03:03:11;20.33;;;10.35;;
52614;SDS011;38508;53.158;6.614;2022-09-09T03:05:37;23.13;;;11.93;;
52614;SDS011;38508;53.158;6.614;2022-09-09T03:08:04;13.02;;;7.93;;
52614;SDS011;38508;53.158;6.614;2022-09-09T03:10:31;23.55;;;10.35;;
52614;SDS011;38508;53.158;6.614;2022-09-09T03:12:57;12.55;;;8.32;;
52614;SDS011;38508;53.158;6.614;2022-09-09T03:15:24;15.82;;;8.18;;
52614;SDS011;38508;53.158;6.614;2022-09-09T03:17:55;14.57;;;8.70;;
52614;SDS011;38508;53.158;6.614;2022-09-09T03:20:22;17.73;;;9.25;;
52614;SDS011;38508;53.158;6.614;2022-09-09T03:22:48;18.42;;;8.25;;
52614;SDS011;38508;53.158;6.614;2022-09-09T03:25:14;15.80;;;7.75;;
52614;SDS011;38508;53.158;6.614;2022-09-09T03:27:40;10.77;;;6.22;;
52614;SDS011;38508;53.158;6.614;2022-09-09T03:30:06;12.38;;;6.32;;
52614;SDS011;38508;53.158;6.614;2022-09-09T03:32:32;10.25;;;5.70;;
52614;SDS011;38508;53.158;6.614;2022-09-09T03:34:58;9.98;;;6.40;;
52614;SDS011;38508;53.158;6.614;2022-09-09T03:37:23;9.38;;;6.80;;
52614;SDS011;38508;53.158;6.614;2022-09-09T03:39:49;13.70;;;5.72;;
52614;SDS011;38508;53.158;6.614;2022-09-09T03:42:15;17.67;;;8.30;;
52614;SDS011;38508;53.158;6.614;2022-09-09T03:44:44;12.98;;;6.18;;
52614;SDS011;38508;53.158;6.614;2022-09-09T03:47:18;10.43;;;5.78;;
52614;SDS011;38508;53.158;6.614;2022-09-09T03:49:46;10.40;;;4.90;;
52614;SDS011;38508;53.158;6.614;2022-09-09T03:52:13;11.60;;;5.78;;
52614;SDS011;38508;53.158;6.614;2022-09-09T03:54:39;11.43;;;4.78;;
52614;SDS011;38508;53.158;6.614;2022-09-09T03:57:07;10.35;;;4.30;;
52614;SDS011;38508;53.158;6.614;2022-09-09T03:59:34;10.25;;;3.83;;
52614;SDS011;38508;53.158;6.614;2022-09-09T04:02:00;8.77;;;3.15;;
52614;SDS011;38508;53.158;6.614;2022-09-09T04:04:26;10.05;;;3.20;;
52614;SDS011;38508;53.158;6.614;2022-09-09T04:06:52;10.55;;;2.55;;
52614;SDS011;38508;53.158;6.614;2022-09-09T04:09:18;9.38;;;2.50;;
52614;SDS011;38508;53.158;6.614;2022-09-09T04:11:44;11.73;;;3.35;;
52614;SDS011;38508;53.158;6.614;2022-09-09T04:14:11;9.00;;;2.20;;
52614;SDS011;38508;53.158;6.614;2022-09-09T04:16:37;8.45;;;2.05;;
52614;SDS011;38508;53.158;6.614;2022-09-09T04:19:04;6.20;;;2.33;;
52614;SDS011;38508;53.158;6.614;2022-09-09T04:21:31;8.80;;;2.90;;
52614;SDS011;38508;53.158;6.614;2022-09-09T04:23:57;11.05;;;3.33;;
52614;SDS011;38508;53.158;6.614;2022-09-09T04:26:22;6.15;;;2.70;;
52614;SDS011;38508;53.158;6.614;2022-09-09T04:28:48;8.38;;;2.75;;
52614;SDS011;38508;53.158;6.614;2022-09-09T04:31:16;8.88;;;3.20;;
52614;SDS011;38508;53.158;6.614;2022-09-09T04:33:45;8.68;;;3.30;;
52614;SDS011;38508;53.158;6.614;2022-09-09T04:36:11;10.18;;;4.57;;
52614;SDS011;38508;53.158;6.614;2022-09-09T04:38:37;8.27;;;3.10;;
52614;SDS011;38508;53.158;6.614;2022-09-09T04:41:03;7.22;;;3.40;;
52614;SDS011;38508;53.158;6.614;2022-09-09T04:43:30;8.88;;;4.47;;
52614;SDS011;38508;53.158;6.614;2022-09-09T04:45:56;9.50;;;3.90;;
52614;SDS011;38508;53.158;6.614;2022-09-09T04:48:22;10.77;;;4.32;;
52614;SDS011;38508;53.158;6.614;2022-09-09T04:50:56;8.68;;;4.50;;
52614;SDS011;38508;53.158;6.614;2022-09-09T04:53:32;8.57;;;4.57;;
52614;SDS011;38508;53.158;6.614;2022-09-09T04:56:10;8.68;;;4.75;;
52614;SDS011;38508;53.158;6.614;2022-09-09T04:58:38;12.60;;;5.75;;
52614;SDS011;38508;53.158;6.614;2022-09-09T05:03:38;9.85;;;4.97;;
52614;SDS011;38508;53.158;6.614;2022-09-09T05:06:07;10.10;;;5.22;;
52614;SDS011;38508;53.158;6.614;2022-09-09T05:08:36;10.82;;;6.07;;
52614;SDS011;38508;53.158;6.614;2022-09-09T05:11:03;9.48;;;6.13;;
52614;SDS011;38508;53.158;6.614;2022-09-09T05:13:37;11.77;;;6.22;;
52614;SDS011;38508;53.158;6.614;2022-09-09T05:16:03;9.65;;;6.25;;
52614;SDS011;38508;53.158;6.614;2022-09-09T05:18:29;12.40;;;5.97;;
52614;SDS011;38508;53.158;6.614;2022-09-09T05:20:58;15.35;;;8.10;;
52614;SDS011;38508;53.158;6.614;2022-09-09T05:23:25;12.15;;;7.05;;
52614;SDS011;38508;53.158;6.614;2022-09-09T05:25:57;13.65;;;7.57;;
52614;SDS011;38508;53.158;6.614;2022-09-09T05:28:26;16.52;;;8.57;;
52614;SDS011;38508;53.158;6.614;2022-09-09T05:31:00;10.95;;;7.18;;
52614;SDS011;38508;53.158;6.614;2022-09-09T05:33:29;17.42;;;9.80;;
52614;SDS011;38508;53.158;6.614;2022-09-09T05:35:59;13.85;;;8.15;;
52614;SDS011;38508;53.158;6.614;2022-09-09T05:38:28;15.82;;;8.40;;
52614;SDS011;38508;53.158;6.614;2022-09-09T05:40:54;12.10;;;8.00;;
52614;SDS011;38508;53.158;6.614;2022-09-09T05:43:23;13.40;;;8.15;;
52614;SDS011;38508;53.158;6.614;2022-09-09T05:46:00;11.20;;;8.13;;
52614;SDS011;38508;53.158;6.614;2022-09-09T05:48:30;14.57;;;9.90;;
52614;SDS011;38508;53.158;6.614;2022-09-09T05:51:01;21.02;;;11.30;;
52614;SDS011;38508;53.158;6.614;2022-09-09T05:53:31;18.08;;;10.63;;
52614;SDS011;38508;53.158;6.614;2022-09-09T05:56:03;14.68;;;9.50;;
52614;SDS011;38508;53.158;6.614;2022-09-09T05:58:33;14.23;;;9.38;;
52614;SDS011;38508;53.158;6.614;2022-09-09T06:01:00;15.18;;;9.88;;
52614;SDS011;38508;53.158;6.614;2022-09-09T06:03:27;14.63;;;8.85;;
52614;SDS011;38508;53.158;6.614;2022-09-09T06:05:59;12.93;;;8.75;;
52614;SDS011;38508;53.158;6.614;2022-09-09T06:08:25;12.13;;;8.10;;
52614;SDS011;38508;53.158;6.614;2022-09-09T06:10:51;15.27;;;9.02;;
52614;SDS011;38508;53.158;6.614;2022-09-09T06:13:17;11.38;;;7.85;;
52614;SDS011;38508;53.158;6.614;2022-09-09T06:15:52;13.95;;;8.40;;
52614;SDS011;38508;53.158;6.614;2022-09-09T06:18:18;17.02;;;8.70;;
52614;SDS011;38508;53.158;6.614;2022-09-09T06:21:00;14.35;;;7.85;;
52614;SDS011;38508;53.158;6.614;2022-09-09T06:23:28;14.13;;;8.43;;
52614;SDS011;38508;53.158;6.614;2022-09-09T06:26:04;12.77;;;8.48;;
52614;SDS011;38508;53.158;6.614;2022-09-09T06:28:31;13.73;;;7.97;;
52614;SDS011;38508;53.158;6.614;2022-09-09T06:31:01;13.00;;;7.88;;
52614;SDS011;38508;53.158;6.614;2022-09-09T06:33:32;10.70;;;7.90;;
52614;SDS011;38508;53.158;6.614;2022-09-09T06:36:00;13.63;;;8.25;;
52614;SDS011;38508;53.158;6.614;2022-09-09T06:38:26;13.77;;;7.95;;
52614;SDS011;38508;53.158;6.614;2022-09-09T06:40:53;12.05;;;7.60;;
52614;SDS011;38508;53.158;6.614;2022-09-09T06:43:21;12.18;;;7.97;;
52614;SDS011;38508;53.158;6.614;2022-09-09T06:45:54;14.35;;;7.80;;
52614;SDS011;38508;53.158;6.614;2022-09-09T06:48:25;17.05;;;8.18;;
52614;SDS011;38508;53.158;6.614;2022-09-09T06:50:59;12.63;;;8.60;;
52614;SDS011;38508;53.158;6.614;2022-09-09T06:53:53;15.25;;;8.02;;
52614;SDS011;38508;53.158;6.614;2022-09-09T06:56:21;15.02;;;8.07;;
52614;SDS011;38508;53.158;6.614;2022-09-09T06:58:49;11.82;;;8.07;;
52614;SDS011;38508;53.158;6.614;2022-09-09T07:01:17;12.27;;;8.15;;
52614;SDS011;38508;53.158;6.614;2022-09-09T07:03:46;10.32;;;7.22;;
52614;SDS011;38508;53.158;6.614;2022-09-09T07:06:14;10.00;;;7.13;;
52614;SDS011;38508;53.158;6.614;2022-09-09T07:08:42;11.73;;;7.25;;
52614;SDS011;38508;53.158;6.614;2022-09-09T07:11:09;12.18;;;8.35;;
52614;SDS011;38508;53.158;6.614;2022-09-09T07:13:36;16.55;;;8.85;;
52614;SDS011;38508;53.158;6.614;2022-09-09T07:16:05;12.38;;;7.85;;
52614;SDS011;38508;53.158;6.614;2022-09-09T07:18:32;15.10;;;8.80;;
52614;SDS011;38508;53.158;6.614;2022-09-09T07:20:59;11.20;;;8.15;;
52614;SDS011;38508;53.158;6.614;2022-09-09T07:23:27;13.60;;;7.78;;
52614;SDS011;38508;53.158;6.614;2022-09-09T07:25:53;14.88;;;8.05;;
52614;SDS011;38508;53.158;6.614;2022-09-09T07:28:19;11.00;;;7.63;;
52614;SDS011;38508;53.158;6.614;2022-09-09T07:33:30;14.02;;;8.00;;
52614;SDS011;38508;53.158;6.614;2022-09-09T07:36:13;11.43;;;6.82;;
52614;SDS011;38508;53.158;6.614;2022-09-09T07:38:45;16.52;;;8.55;;
52614;SDS011;38508;53.158;6.614;2022-09-09T07:41:14;11.77;;;6.88;;
52614;SDS011;38508;53.158;6.614;2022-09-09T07:43:55;15.02;;;8.05;;
52614;SDS011;38508;53.158;6.614;2022-09-09T07:46:22;12.70;;;7.82;;
52614;SDS011;38508;53.158;6.614;2022-09-09T07:48:51;12.90;;;8.10;;
52614;SDS011;38508;53.158;6.614;2022-09-09T07:51:20;11.23;;;7.32;;
52614;SDS011;38508;53.158;6.614;2022-09-09T07:53:52;12.55;;;6.97;;
52614;SDS011;38508;53.158;6.614;2022-09-09T07:56:25;8.80;;;6.07;;
52614;SDS011;38508;53.158;6.614;2022-09-09T07:58:52;12.90;;;6.97;;
52614;SDS011;38508;53.158;6.614;2022-09-09T08:01:20;12.30;;;7.13;;
52614;SDS011;38508;53.158;6.614;2022-09-09T08:03:56;9.27;;;6.32;;
52614;SDS011;38508;53.158;6.614;2022-09-09T08:06:28;10.35;;;6.50;;
52614;SDS011;38508;53.158;6.614;2022-09-09T08:08:58;8.13;;;6.00;;
52614;SDS011;38508;53.158;6.614;2022-09-09T08:11:25;11.73;;;7.15;;
52614;SDS011;38508;53.158;6.614;2022-09-09T08:13:52;10.70;;;6.35;;
52614;SDS011;38508;53.158;6.614;2022-09-09T08:16:19;11.68;;;6.63;;
52614;SDS011;38508;53.158;6.614;2022-09-09T08:18:47;9.13;;;5.57;;
52614;SDS011;38508;53.158;6.614;2022-09-09T08:21:15;13.38;;;5.72;;
52614;SDS011;38508;53.158;6.614;2022-09-09T08:23:49;11.15;;;5.47;;
52614;SDS011;38508;53.158;6.614;2022-09-09T08:26:36;8.85;;;5.20;;
52614;SDS011;38508;53.158;6.614;2022-09-09T08:29:05;12.52;;;5.95;;
52614;SDS011;38508;53.158;6.614;2022-09-09T08:31:32;11.75;;;5.97;;
52614;SDS011;38508;53.158;6.614;2022-09-09T08:34:00;11.23;;;5.43;;
52614;SDS011;38508;53.158;6.614;2022-09-09T08:36:28;10.65;;;6.03;;
52614;SDS011;38508;53.158;6.614;2022-09-09T08:38:58;9.27;;;5.22;;
52614;SDS011;38508;53.158;6.614;2022-09-09T08:52:01;11.07;;;5.57;;
52614;SDS011;38508;53.158;6.614;2022-09-09T08:54:30;11.13;;;5.43;;
52614;SDS011;38508;53.158;6.614;2022-09-09T08:56:59;6.85;;;4.63;;
52614;SDS011;38508;53.158;6.614;2022-09-09T08:59:25;11.02;;;5.10;;
52614;SDS011;38508;53.158;6.614;2022-09-09T09:10:29;9.60;;;4.22;;
52614;SDS011;38508;53.158;6.614;2022-09-09T09:12:55;7.85;;;4.28;;
52614;SDS011;38508;53.158;6.614;2022-09-09T09:15:40;6.80;;;4.05;;
52614;SDS011;38508;53.158;6.614;2022-09-09T09:18:07;10.35;;;4.90;;
52614;SDS011;38508;53.158;6.614;2022-09-09T09:23:23;11.90;;;5.00;;
52614;SDS011;38508;53.158;6.614;2022-09-09T09:25:52;7.55;;;4.20;;
52614;SDS011;38508;53.158;6.614;2022-09-09T09:28:25;7.40;;;4.40;;
52614;SDS011;38508;53.158;6.614;2022-09-09T09:36:06;10.35;;;4.15;;
52614;SDS011;38508;53.158;6.614;2022-09-09T09:38:35;12.38;;;3.50;;
52614;SDS011;38508;53.158;6.614;2022-09-09T09:41:02;9.35;;;3.70;;
52614;SDS011;38508;53.158;6.614;2022-09-09T09:43:29;10.88;;;4.15;;
52614;SDS011;38508;53.158;6.614;2022-09-09T09:45:56;16.80;;;4.45;;
52614;SDS011;38508;53.158;6.614;2022-09-09T09:48:23;8.40;;;3.40;;
52614;SDS011;38508;53.158;6.614;2022-09-09T09:50:50;9.20;;;3.83;;
52614;SDS011;38508;53.158;6.614;2022-09-09T09:53:45;12.38;;;4.00;;
52614;SDS011;38508;53.158;6.614;2022-09-09T09:56:12;11.40;;;4.65;;
52614;SDS011;38508;53.158;6.614;2022-09-09T09:58:48;10.43;;;4.45;;
52614;SDS011;38508;53.158;6.614;2022-09-09T10:01:26;9.10;;;3.33;;
52614;SDS011;38508;53.158;6.614;2022-09-09T10:03:58;11.27;;;3.40;;
52614;SDS011;38508;53.158;6.614;2022-09-09T10:17:11;10.35;;;2.60;;
52614;SDS011;38508;53.158;6.614;2022-09-09T10:19:39;8.13;;;2.53;;
52614;SDS011;38508;53.158;6.614;2022-09-09T10:22:27;9.93;;;2.15;;
52614;SDS011;38508;53.158;6.614;2022-09-09T10:31:04;9.20;;;2.30;;
52614;SDS011;38508;53.158;6.614;2022-09-09T10:36:18;10.70;;;2.33;;
52614;SDS011;38508;53.158;6.614;2022-09-09T10:38:46;11.13;;;2.20;;
52614;SDS011;38508;53.158;6.614;2022-09-09T10:41:19;11.68;;;2.53;;
52614;SDS011;38508;53.158;6.614;2022-09-09T10:46:34;9.67;;;2.10;;
52614;SDS011;38508;53.158;6.614;2022-09-09T10:49:26;12.10;;;2.67;;
52614;SDS011;38508;53.158;6.614;2022-09-09T11:00:28;8.93;;;1.90;;
52614;SDS011;38508;53.158;6.614;2022-09-09T11:03:03;7.20;;;1.65;;
52614;SDS011;38508;53.158;6.614;2022-09-09T11:08:09;9.27;;;1.50;;
52614;SDS011;38508;53.158;6.614;2022-09-09T11:19:44;7.57;;;1.60;;
52614;SDS011;38508;53.158;6.614;2022-09-09T11:22:33;6.38;;;1.38;;
52614;SDS011;38508;53.158;6.614;2022-09-09T11:27:50;8.35;;;1.48;;
52614;SDS011;38508;53.158;6.614;2022-09-09T11:36:31;8.18;;;1.30;;
52614;SDS011;38508;53.158;6.614;2022-09-09T11:39:35;7.13;;;1.40;;
52614;SDS011;38508;53.158;6.614;2022-09-09T11:42:05;8.95;;;1.60;;
52614;SDS011;38508;53.158;6.614;2022-09-09T11:44:32;4.20;;;1.00;;
52614;SDS011;38508;53.158;6.614;2022-09-09T11:46:58;4.55;;;1.10;;
52614;SDS011;38508;53.158;6.614;2022-09-09T11:49:40;5.72;;;1.30;;
52614;SDS011;38508;53.158;6.614;2022-09-09T11:52:21;7.65;;;1.38;;
52614;SDS011;38508;53.158;6.614;2022-09-09T11:54:50;7.15;;;1.25;;
52614;SDS011;38508;53.158;6.614;2022-09-09T11:57:24;7.57;;;1.52;;
52614;SDS011;38508;53.158;6.614;2022-09-09T11:59:55;8.00;;;1.10;;
52614;SDS011;38508;53.158;6.614;2022-09-09T12:02:24;7.40;;;1.25;;
52614;SDS011;38508;53.158;6.614;2022-09-09T12:07:46;7.10;;;1.15;;
52614;SDS011;38508;53.158;6.614;2022-09-09T12:12:52;6.35;;;1.10;;
52614;SDS011;38508;53.158;6.614;2022-09-09T12:17:52;5.25;;;1.10;;
52614;SDS011;38508;53.158;6.614;2022-09-09T12:20:23;4.15;;;1.30;;
52614;SDS011;38508;53.158;6.614;2022-09-09T12:22:59;5.07;;;0.93;;
52614;SDS011;38508;53.158;6.614;2022-09-09T12:33:36;3.50;;;0.70;;
52614;SDS011;38508;53.158;6.614;2022-09-09T12:36:04;9.10;;;1.65;;
52614;SDS011;38508;53.158;6.614;2022-09-09T12:38:36;6.57;;;1.70;;
52614;SDS011;38508;53.158;6.614;2022-09-09T12:41:04;4.72;;;1.17;;
52614;SDS011;38508;53.158;6.614;2022-09-09T12:43:30;9.13;;;1.42;;
52614;SDS011;38508;53.158;6.614;2022-09-09T12:46:08;6.40;;;1.20;;
52614;SDS011;38508;53.158;6.614;2022-09-09T12:48:52;11.43;;;1.52;;
52614;SDS011;38508;53.158;6.614;2022-09-09T12:51:21;7.65;;;1.40;;
52614;SDS011;38508;53.158;6.614;2022-09-09T12:53:51;6.35;;;1.55;;
52614;SDS011;38508;53.158;6.614;2022-09-09T12:56:18;6.32;;;1.35;;
52614;SDS011;38508;53.158;6.614;2022-09-09T12:58:47;6.50;;;1.42;;
52614;SDS011;38508;53.158;6.614;2022-09-09T13:01:26;5.28;;;1.40;;
52614;SDS011;38508;53.158;6.614;2022-09-09T13:03:54;5.75;;;1.20;;
52614;SDS011;38508;53.158;6.614;2022-09-09T13:08:54;5.10;;;1.20;;
52614;SDS011;38508;53.158;6.614;2022-09-09T13:11:43;5.80;;;1.10;;
52614;SDS011;38508;53.158;6.614;2022-09-09T13:14:45;8.43;;;1.30;;
52614;SDS011;38508;53.158;6.614;2022-09-09T13:17:04;5.13;;;0.90;;
52614;SDS011;38508;53.158;6.614;2022-09-09T13:19:35;6.65;;;1.23;;
52614;SDS011;38508;53.158;6.614;2022-09-09T13:22:19;7.20;;;1.20;;
52614;SDS011;38508;53.158;6.614;2022-09-09T13:24:48;5.30;;;1.20;;
52614;SDS011;38508;53.158;6.614;2022-09-09T13:27:35;6.95;;;1.10;;
52614;SDS011;38508;53.158;6.614;2022-09-09T13:30:19;6.07;;;1.10;;
52614;SDS011;38508;53.158;6.614;2022-09-09T13:33:03;5.50;;;1.00;;
52614;SDS011;38508;53.158;6.614;2022-09-09T13:35:46;5.38;;;1.00;;
52614;SDS011;38508;53.158;6.614;2022-09-09T13:38:15;7.70;;;1.17;;
52614;SDS011;38508;53.158;6.614;2022-09-09T13:41:04;6.72;;;1.00;;
52614;SDS011;38508;53.158;6.614;2022-09-09T13:43:33;5.03;;;1.05;;
52614;SDS011;38508;53.158;6.614;2022-09-09T13:46:05;6.82;;;1.08;;
52614;SDS011;38508;53.158;6.614;2022-09-09T13:49:03;6.63;;;1.30;;
52614;SDS011;38508;53.158;6.614;2022-09-09T13:51:48;5.77;;;0.80;;
52614;SDS011;38508;53.158;6.614;2022-09-09T13:54:16;6.25;;;0.90;;
52614;SDS011;38508;53.158;6.614;2022-09-09T13:56:46;3.35;;;0.70;;
52614;SDS011;38508;53.158;6.614;2022-09-09T13:59:15;3.45;;;0.75;;
52614;SDS011;38508;53.158;6.614;2022-09-09T14:01:44;2.75;;;0.40;;
52614;SDS011;38508;53.158;6.614;2022-09-09T14:04:10;2.80;;;0.40;;
52614;SDS011;38508;53.158;6.614;2022-09-09T14:06:37;3.03;;;0.52;;
52614;SDS011;38508;53.158;6.614;2022-09-09T14:09:07;1.67;;;0.20;;
52614;SDS011;38508;53.158;6.614;2022-09-09T14:11:36;2.70;;;0.50;;
52614;SDS011;38508;53.158;6.614;2022-09-09T14:14:02;2.53;;;0.30;;
52614;SDS011;38508;53.158;6.614;2022-09-09T14:16:28;1.92;;;0.40;;
52614;SDS011;38508;53.158;6.614;2022-09-09T14:18:54;2.90;;;0.75;;
52614;SDS011;38508;53.158;6.614;2022-09-09T14:21:24;2.03;;;0.30;;
52614;SDS011;38508;53.158;6.614;2022-09-09T14:23:50;3.15;;;0.60;;
52614;SDS011;38508;53.158;6.614;2022-09-09T14:26:18;3.13;;;0.52;;
52614;SDS011;38508;53.158;6.614;2022-09-09T14:28:46;6.32;;;0.70;;
52614;SDS011;38508;53.158;6.614;2022-09-09T14:31:12;4.63;;;0.70;;
52614;SDS011;38508;53.158;6.614;2022-09-09T14:33:38;4.63;;;0.82;;
52614;SDS011;38508;53.158;6.614;2022-09-09T14:36:04;6.40;;;1.00;;
52614;SDS011;38508;53.158;6.614;2022-09-09T14:38:32;3.30;;;0.70;;
52614;SDS011;38508;53.158;6.614;2022-09-09T14:41:02;9.93;;;1.23;;
52614;SDS011;38508;53.158;6.614;2022-09-09T14:43:28;3.67;;;0.63;;
52614;SDS011;38508;53.158;6.614;2022-09-09T14:45:57;5.47;;;1.10;;
52614;SDS011;38508;53.158;6.614;2022-09-09T14:48:30;4.10;;;1.25;;
52614;SDS011;38508;53.158;6.614;2022-09-09T14:50:56;6.60;;;1.02;;
52614;SDS011;38508;53.158;6.614;2022-09-09T14:53:22;6.00;;;1.38;;
52614;SDS011;38508;53.158;6.614;2022-09-09T14:55:47;2.97;;;0.77;;
52614;SDS011;38508;53.158;6.614;2022-09-09T14:58:14;4.38;;;1.15;;
52614;SDS011;38508;53.158;6.614;2022-09-09T15:00:39;5.45;;;1.20;;
52614;SDS011;38508;53.158;6.614;2022-09-09T15:03:06;3.33;;;1.23;;
52614;SDS011;38508;53.158;6.614;2022-09-09T15:05:31;6.88;;;1.27;;
52614;SDS011;38508;53.158;6.614;2022-09-09T15:07:57;8.43;;;1.40;;
52614;SDS011;38508;53.158;6.614;2022-09-09T15:10:23;5.53;;;1.55;;
52614;SDS011;38508;53.158;6.614;2022-09-09T15:12:49;3.30;;;0.85;;
52614;SDS011;38508;53.158;6.614;2022-09-09T15:15:15;3.67;;;1.08;;
52614;SDS011;38508;53.158;6.614;2022-09-09T15:17:40;6.05;;;1.20;;
52614;SDS011;38508;53.158;6.614;2022-09-09T15:20:06;6.03;;;1.02;;
52614;SDS011;38508;53.158;6.614;2022-09-09T15:22:32;2.92;;;0.80;;
52614;SDS011;38508;53.158;6.614;2022-09-09T15:24:59;4.65;;;1.10;;
52614;SDS011;38508;53.158;6.614;2022-09-09T15:27:24;5.57;;;1.50;;
52614;SDS011;38508;53.158;6.614;2022-09-09T15:29:50;4.63;;;1.10;;
52614;SDS011;38508;53.158;6.614;2022-09-09T15:32:17;5.13;;;1.20;;
52614;SDS011;38508;53.158;6.614;2022-09-09T15:34:43;4.65;;;1.10;;
52614;SDS011;38508;53.158;6.614;2022-09-09T15:37:11;4.35;;;0.80;;
52614;SDS011;38508;53.158;6.614;2022-09-09T15:39:40;2.72;;;0.70;;
52614;SDS011;38508;53.158;6.614;2022-09-09T15:42:06;4.10;;;0.98;;
52614;SDS011;38508;53.158;6.614;2022-09-09T15:44:42;2.40;;;0.60;;
52614;SDS011;38508;53.158;6.614;2022-09-09T15:47:10;2.53;;;0.70;;
52614;SDS011;38508;53.158;6.614;2022-09-09T15:49:37;4.30;;;0.70;;
52614;SDS011;38508;53.158;6.614;2022-09-09T15:52:03;2.92;;;0.82;;
52614;SDS011;38508;53.158;6.614;2022-09-09T15:54:33;3.15;;;0.52;;
52614;SDS011;38508;53.158;6.614;2022-09-09T15:57:00;2.10;;;0.70;;
52614;SDS011;38508;53.158;6.614;2022-09-09T15:59:29;4.80;;;0.50;;
52614;SDS011;38508;53.158;6.614;2022-09-09T16:01:56;1.23;;;0.60;;
52614;SDS011;38508;53.158;6.614;2022-09-09T16:04:25;2.80;;;0.73;;
52614;SDS011;38508;53.158;6.614;2022-09-09T16:06:52;5.28;;;0.80;;
52614;SDS011;38508;53.158;6.614;2022-09-09T16:09:19;1.80;;;0.70;;
52614;SDS011;38508;53.158;6.614;2022-09-09T16:11:46;2.80;;;0.90;;
52614;SDS011;38508;53.158;6.614;2022-09-09T16:14:13;4.18;;;0.70;;
52614;SDS011;38508;53.158;6.614;2022-09-09T16:16:40;2.17;;;0.82;;
52614;SDS011;38508;53.158;6.614;2022-09-09T16:19:08;1.95;;;0.80;;
52614;SDS011;38508;53.158;6.614;2022-09-09T16:21:36;2.90;;;0.73;;
52614;SDS011;38508;53.158;6.614;2022-09-09T16:24:16;2.20;;;0.80;;
52614;SDS011;38508;53.158;6.614;2022-09-09T16:26:44;2.15;;;0.75;;
52614;SDS011;38508;53.158;6.614;2022-09-09T16:29:12;3.10;;;0.93;;
52614;SDS011;38508;53.158;6.614;2022-09-09T16:31:39;2.25;;;0.77;;
52614;SDS011;38508;53.158;6.614;2022-09-09T16:34:05;4.35;;;1.20;;
52614;SDS011;38508;53.158;6.614;2022-09-09T16:36:32;4.78;;;0.90;;
52614;SDS011;38508;53.158;6.614;2022-09-09T16:39:00;3.08;;;0.75;;
52614;SDS011;38508;53.158;6.614;2022-09-09T16:41:30;6.20;;;1.00;;
52614;SDS011;38508;53.158;6.614;2022-09-09T16:43:58;4.93;;;1.00;;
52614;SDS011;38508;53.158;6.614;2022-09-09T16:46:28;3.35;;;0.82;;
52614;SDS011;38508;53.158;6.614;2022-09-09T16:48:55;5.68;;;1.20;;
52614;SDS011;38508;53.158;6.614;2022-09-09T16:51:29;5.53;;;0.82;;
52614;SDS011;38508;53.158;6.614;2022-09-09T16:53:58;3.05;;;0.93;;
52614;SDS011;38508;53.158;6.614;2022-09-09T16:56:26;5.97;;;0.80;;
52614;SDS011;38508;53.158;6.614;2022-09-09T16:59:01;4.60;;;0.95;;
52614;SDS011;38508;53.158;6.614;2022-09-09T17:01:33;3.95;;;1.20;;
52614;SDS011;38508;53.158;6.614;2022-09-09T17:04:03;3.53;;;0.90;;
52614;SDS011;38508;53.158;6.614;2022-09-09T17:06:30;2.05;;;1.02;;
52614;SDS011;38508;53.158;6.614;2022-09-09T17:09:04;3.25;;;0.85;;
52614;SDS011;38508;53.158;6.614;2022-09-09T17:11:31;2.78;;;0.80;;
52614;SDS011;38508;53.158;6.614;2022-09-09T17:13:58;5.13;;;1.35;;
52614;SDS011;38508;53.158;6.614;2022-09-09T17:16:26;3.28;;;0.95;;
52614;SDS011;38508;53.158;6.614;2022-09-09T17:18:53;4.15;;;1.10;;
52614;SDS011;38508;53.158;6.614;2022-09-09T17:21:21;2.03;;;0.77;;
52614;SDS011;38508;53.158;6.614;2022-09-09T17:23:48;3.53;;;0.95;;